sensor_id;sensor_type;location;lat;lon;timestamp;temperature;humidity
37380;DHT22;23252;-33.992;18.480;2023-04-03T00:00:34;19.40;99.90
37380;DHT22;23252;-33.992;18.480;2023-04-03T00:03:01;19.40;99.90
37380;DHT22;23252;-33.992;18.480;2023-04-03T00:05:27;19.40;99.90
37380;DHT22;23252;-33.992;18.480;2023-04-03T00:07:54;19.40;99.90
37380;DHT22;23252;-33.992;18.480;2023-04-03T00:10:21;19.40;99.90
37380;DHT22;23252;-33.992;18.480;2023-04-03T00:12:48;19.40;99.90
37380;DHT22;23252;-33.992;18.480;2023-04-03T00:15:14;19.40;99.90
37380;DHT22;23252;-33.992;18.480;2023-04-03T00:17:41;19.40;99.90
37380;DHT22;23252;-33.992;18.480;2023-04-03T00:20:07;19.40;99.90
37380;DHT22;23252;-33.992;18.480;2023-04-03T00:22:34;19.50;99.90
37380;DHT22;23252;-33.992;18.480;2023-04-03T00:25:01;19.50;99.90
37380;DHT22;23252;-33.992;18.480;2023-04-03T00:27:27;19.50;99.90
37380;DHT22;23252;-33.992;18.480;2023-04-03T00:29:54;19.40;99.90
37380;DHT22;23252;-33.992;18.480;2023-04-03T00:32:20;19.40;99.90
37380;DHT22;23252;-33.992;18.480;2023-04-03T00:34:47;19.40;99.90
37380;DHT22;23252;-33.992;18.480;2023-04-03T00:37:13;19.40;99.90
37380;DHT22;23252;-33.992;18.480;2023-04-03T00:39:40;19.50;99.90
37380;DHT22;23252;-33.992;18.480;2023-04-03T00:42:07;19.50;99.90
37380;DHT22;23252;-33.992;18.480;2023-04-03T00:47:00;19.50;99.90
37380;DHT22;23252;-33.992;18.480;2023-04-03T00:49:28;19.50;99.90
37380;DHT22;23252;-33.992;18.480;2023-04-03T00:51:56;19.40;99.90
37380;DHT22;23252;-33.992;18.480;2023-04-03T00:54:23;19.40;99.90
37380;DHT22;23252;-33.992;18.480;2023-04-03T00:56:51;19.30;99.90
37380;DHT22;23252;-33.992;18.480;2023-04-03T00:59:23;19.20;99.90
37380;DHT22;23252;-33.992;18.480;2023-04-03T01:01:54;19.20;99.90
37380;DHT22;23252;-33.992;18.480;2023-04-03T01:06:56;19.00;99.90
37380;DHT22;23252;-33.992;18.480;2023-04-03T01:09:23;19.00;99.90
37380;DHT22;23252;-33.992;18.480;2023-04-03T01:11:50;19.00;99.90
37380;DHT22;23252;-33.992;18.480;2023-04-03T01:14:16;18.90;99.90
37380;DHT22;23252;-33.992;18.480;2023-04-03T01:16:50;18.90;99.90
37380;DHT22;23252;-33.992;18.480;2023-04-03T01:19:17;18.90;99.90
37380;DHT22;23252;-33.992;18.480;2023-04-03T01:21:54;18.90;99.90
37380;DHT22;23252;-33.992;18.480;2023-04-03T01:24:37;19.00;99.90
37380;DHT22;23252;-33.992;18.480;2023-04-03T01:27:09;19.00;99.90
37380;DHT22;23252;-33.992;18.480;2023-04-03T01:29:36;19.00;99.90
37380;DHT22;23252;-33.992;18.480;2023-04-03T01:32:03;19.00;99.90
37380;DHT22;23252;-33.992;18.480;2023-04-03T01:34:30;19.10;99.90
37380;DHT22;23252;-33.992;18.480;2023-04-03T01:36:57;19.10;99.90
37380;DHT22;23252;-33.992;18.480;2023-04-03T01:39:24;19.10;99.90
37380;DHT22;23252;-33.992;18.480;2023-04-03T01:41:51;19.00;99.90
37380;DHT22;23252;-33.992;18.480;2023-04-03T01:44:17;19.00;99.90
37380;DHT22;23252;-33.992;18.480;2023-04-03T01:46:44;19.10;99.90
37380;DHT22;23252;-33.992;18.480;2023-04-03T01:49:11;19.10;99.90
37380;DHT22;23252;-33.992;18.480;2023-04-03T01:51:37;19.10;99.90
37380;DHT22;23252;-33.992;18.480;2023-04-03T01:54:04;19.10;99.90
37380;DHT22;23252;-33.992;18.480;2023-04-03T01:56:31;19.10;99.90
37380;DHT22;23252;-33.992;18.480;2023-04-03T01:58:57;19.10;99.90
37380;DHT22;23252;-33.992;18.480;2023-04-03T02:01:24;19.10;99.90
37380;DHT22;23252;-33.992;18.480;2023-04-03T02:03:51;19.10;99.90
37380;DHT22;23252;-33.992;18.480;2023-04-03T02:06:18;19.10;99.90
37380;DHT22;23252;-33.992;18.480;2023-04-03T02:08:44;19.00;99.90
37380;DHT22;23252;-33.992;18.480;2023-04-03T02:11:11;19.00;99.90
37380;DHT22;23252;-33.992;18.480;2023-04-03T02:13:37;19.00;99.90
37380;DHT22;23252;-33.992;18.480;2023-04-03T04:13:22;18.00;99.90
37380;DHT22;23252;-33.992;18.480;2023-04-03T04:15:49;18.10;99.90
37380;DHT22;23252;-33.992;18.480;2023-04-03T04:18:15;18.10;99.90
37380;DHT22;23252;-33.992;18.480;2023-04-03T04:20:42;18.10;99.90
37380;DHT22;23252;-33.992;18.480;2023-04-03T04:23:08;18.00;99.90
37380;DHT22;23252;-33.992;18.480;2023-04-03T04:25:35;18.00;99.90
37380;DHT22;23252;-33.992;18.480;2023-04-03T04:28:02;18.00;99.90
37380;DHT22;23252;-33.992;18.480;2023-04-03T04:30:28;18.00;99.90
37380;DHT22;23252;-33.992;18.480;2023-04-03T04:32:55;17.90;99.90
37380;DHT22;23252;-33.992;18.480;2023-04-03T04:35:21;17.90;99.90
37380;DHT22;23252;-33.992;18.480;2023-04-03T04:37:48;17.90;99.90
37380;DHT22;23252;-33.992;18.480;2023-04-03T04:40:14;17.80;99.90
37380;DHT22;23252;-33.992;18.480;2023-04-03T04:42:41;17.90;99.90
37380;DHT22;23252;-33.992;18.480;2023-04-03T04:45:08;17.80;99.90
37380;DHT22;23252;-33.992;18.480;2023-04-03T04:47:34;17.80;99.90
37380;DHT22;23252;-33.992;18.480;2023-04-03T04:50:01;17.80;99.90
37380;DHT22;23252;-33.992;18.480;2023-04-03T04:52:27;17.80;99.90
37380;DHT22;23252;-33.992;18.480;2023-04-03T04:54:54;17.80;99.90
37380;DHT22;23252;-33.992;18.480;2023-04-03T04:57:20;17.70;99.90
37380;DHT22;23252;-33.992;18.480;2023-04-03T04:59:47;17.80;99.90
37380;DHT22;23252;-33.992;18.480;2023-04-03T05:02:14;17.80;99.90
37380;DHT22;23252;-33.992;18.480;2023-04-03T05:04:40;17.80;99.90
37380;DHT22;23252;-33.992;18.480;2023-04-03T05:07:07;17.90;99.90
37380;DHT22;23252;-33.992;18.480;2023-04-03T05:09:33;17.90;99.90
37380;DHT22;23252;-33.992;18.480;2023-04-03T05:12:00;18.00;99.90
37380;DHT22;23252;-33.992;18.480;2023-04-03T05:14:27;18.00;99.90
37380;DHT22;23252;-33.992;18.480;2023-04-03T05:16:54;18.10;99.90
37380;DHT22;23252;-33.992;18.480;2023-04-03T05:19:21;18.10;99.90
37380;DHT22;23252;-33.992;18.480;2023-04-03T05:21:48;18.20;99.90
37380;DHT22;23252;-33.992;18.480;2023-04-03T05:24:15;18.20;99.90
37380;DHT22;23252;-33.992;18.480;2023-04-03T05:26:43;18.30;99.90
37380;DHT22;23252;-33.992;18.480;2023-04-03T05:29:09;18.40;99.90
37380;DHT22;23252;-33.992;18.480;2023-04-03T05:31:36;18.50;99.90
37380;DHT22;23252;-33.992;18.480;2023-04-03T05:34:02;18.60;99.90
37380;DHT22;23252;-33.992;18.480;2023-04-03T05:36:29;18.70;99.90
37380;DHT22;23252;-33.992;18.480;2023-04-03T05:38:55;18.80;99.90
37380;DHT22;23252;-33.992;18.480;2023-04-03T05:41:23;18.80;99.90
37380;DHT22;23252;-33.992;18.480;2023-04-03T05:43:49;18.90;99.90
37380;DHT22;23252;-33.992;18.480;2023-04-03T05:46:18;18.90;99.90
37380;DHT22;23252;-33.992;18.480;2023-04-03T05:48:46;19.00;99.90
37380;DHT22;23252;-33.992;18.480;2023-04-03T05:51:18;19.00;99.90
37380;DHT22;23252;-33.992;18.480;2023-04-03T05:53:47;19.00;99.90
37380;DHT22;23252;-33.992;18.480;2023-04-03T05:56:14;19.10;99.90
37380;DHT22;23252;-33.992;18.480;2023-04-03T05:58:40;19.10;99.90
37380;DHT22;23252;-33.992;18.480;2023-04-03T06:01:07;19.20;99.90
37380;DHT22;23252;-33.992;18.480;2023-04-03T06:03:33;19.30;99.90
37380;DHT22;23252;-33.992;18.480;2023-04-03T06:06:02;19.30;99.90
37380;DHT22;23252;-33.992;18.480;2023-04-03T06:08:29;19.30;99.90
37380;DHT22;23252;-33.992;18.480;2023-04-03T06:10:56;19.40;99.90
37380;DHT22;23252;-33.992;18.480;2023-04-03T06:13:22;19.40;99.90
37380;DHT22;23252;-33.992;18.480;2023-04-03T06:15:49;19.40;99.90
37380;DHT22;23252;-33.992;18.480;2023-04-03T06:18:16;19.40;99.90
37380;DHT22;23252;-33.992;18.480;2023-04-03T06:20:42;19.40;99.90
37380;DHT22;23252;-33.992;18.480;2023-04-03T06:23:09;19.40;99.90
37380;DHT22;23252;-33.992;18.480;2023-04-03T06:25:38;19.30;99.90
37380;DHT22;23252;-33.992;18.480;2023-04-03T06:28:05;19.30;99.90
37380;DHT22;23252;-33.992;18.480;2023-04-03T06:30:31;19.20;99.90
37380;DHT22;23252;-33.992;18.480;2023-04-03T06:32:58;19.20;99.90
37380;DHT22;23252;-33.992;18.480;2023-04-03T06:35:25;19.10;99.90
37380;DHT22;23252;-33.992;18.480;2023-04-03T06:37:52;19.10;99.90
37380;DHT22;23252;-33.992;18.480;2023-04-03T06:40:22;19.00;99.90
37380;DHT22;23252;-33.992;18.480;2023-04-03T06:42:49;18.90;99.90
37380;DHT22;23252;-33.992;18.480;2023-04-03T06:45:16;18.90;99.90
37380;DHT22;23252;-33.992;18.480;2023-04-03T06:47:42;18.90;99.90
37380;DHT22;23252;-33.992;18.480;2023-04-03T06:50:11;18.90;99.90
37380;DHT22;23252;-33.992;18.480;2023-04-03T06:52:40;18.90;99.90
37380;DHT22;23252;-33.992;18.480;2023-04-03T06:55:06;18.90;99.90
37380;DHT22;23252;-33.992;18.480;2023-04-03T06:57:34;18.70;99.90
37380;DHT22;23252;-33.992;18.480;2023-04-03T07:00:01;18.70;99.90
37380;DHT22;23252;-33.992;18.480;2023-04-03T07:02:29;18.60;99.90
37380;DHT22;23252;-33.992;18.480;2023-04-03T07:04:55;18.60;99.90
37380;DHT22;23252;-33.992;18.480;2023-04-03T07:07:22;18.60;99.90
37380;DHT22;23252;-33.992;18.480;2023-04-03T07:09:48;18.50;99.90
37380;DHT22;23252;-33.992;18.480;2023-04-03T07:12:15;18.50;99.90
37380;DHT22;23252;-33.992;18.480;2023-04-03T07:14:42;18.50;99.90
37380;DHT22;23252;-33.992;18.480;2023-04-03T07:17:09;18.50;99.90
37380;DHT22;23252;-33.992;18.480;2023-04-03T07:19:36;18.50;99.90
37380;DHT22;23252;-33.992;18.480;2023-04-03T07:22:02;18.60;99.90
37380;DHT22;23252;-33.992;18.480;2023-04-03T07:24:29;18.50;99.90
37380;DHT22;23252;-33.992;18.480;2023-04-03T07:26:55;18.60;99.90
37380;DHT22;23252;-33.992;18.480;2023-04-03T07:29:22;18.70;99.90
37380;DHT22;23252;-33.992;18.480;2023-04-03T07:31:49;18.80;99.90
37380;DHT22;23252;-33.992;18.480;2023-04-03T07:34:15;18.70;99.90
37380;DHT22;23252;-33.992;18.480;2023-04-03T07:36:42;18.90;99.90
37380;DHT22;23252;-33.992;18.480;2023-04-03T07:39:08;19.10;99.90
37380;DHT22;23252;-33.992;18.480;2023-04-03T07:41:35;19.20;99.90
37380;DHT22;23252;-33.992;18.480;2023-04-03T07:44:01;19.30;99.90
37380;DHT22;23252;-33.992;18.480;2023-04-03T07:46:28;19.30;99.90
37380;DHT22;23252;-33.992;18.480;2023-04-03T07:48:55;19.40;99.90
37380;DHT22;23252;-33.992;18.480;2023-04-03T07:51:21;19.60;99.90
37380;DHT22;23252;-33.992;18.480;2023-04-03T07:53:48;19.70;99.90
37380;DHT22;23252;-33.992;18.480;2023-04-03T07:56:14;19.70;99.90
37380;DHT22;23252;-33.992;18.480;2023-04-03T07:58:41;19.90;99.90
37380;DHT22;23252;-33.992;18.480;2023-04-03T08:01:07;19.90;99.90
37380;DHT22;23252;-33.992;18.480;2023-04-03T08:03:34;19.90;99.90
37380;DHT22;23252;-33.992;18.480;2023-04-03T08:06:06;20.00;99.90
37380;DHT22;23252;-33.992;18.480;2023-04-03T08:08:33;20.00;99.90
37380;DHT22;23252;-33.992;18.480;2023-04-03T08:11:00;20.10;99.90
37380;DHT22;23252;-33.992;18.480;2023-04-03T08:13:29;20.30;99.90
37380;DHT22;23252;-33.992;18.480;2023-04-03T08:15:56;20.40;99.90
37380;DHT22;23252;-33.992;18.480;2023-04-03T08:18:25;20.50;99.90
37380;DHT22;23252;-33.992;18.480;2023-04-03T08:20:52;20.70;99.90
37380;DHT22;23252;-33.992;18.480;2023-04-03T08:23:19;20.70;99.90
37380;DHT22;23252;-33.992;18.480;2023-04-03T08:25:45;20.80;99.90
37380;DHT22;23252;-33.992;18.480;2023-04-03T08:28:12;20.70;99.90
37380;DHT22;23252;-33.992;18.480;2023-04-03T08:30:42;20.70;99.90
37380;DHT22;23252;-33.992;18.480;2023-04-03T08:33:09;20.90;99.90
37380;DHT22;23252;-33.992;18.480;2023-04-03T08:35:40;20.90;99.90
37380;DHT22;23252;-33.992;18.480;2023-04-03T08:38:07;21.00;99.90
37380;DHT22;23252;-33.992;18.480;2023-04-03T08:40:34;21.10;99.90
37380;DHT22;23252;-33.992;18.480;2023-04-03T08:43:19;21.10;99.90
37380;DHT22;23252;-33.992;18.480;2023-04-03T08:45:52;21.10;99.90
37380;DHT22;23252;-33.992;18.480;2023-04-03T08:51:22;21.40;99.90
37380;DHT22;23252;-33.992;18.480;2023-04-03T08:53:57;21.50;99.90
37380;DHT22;23252;-33.992;18.480;2023-04-03T08:56:25;21.60;99.90
37380;DHT22;23252;-33.992;18.480;2023-04-03T08:59:05;21.70;99.90
37380;DHT22;23252;-33.992;18.480;2023-04-03T09:01:40;21.60;99.90
37380;DHT22;23252;-33.992;18.480;2023-04-03T09:04:14;21.70;99.90
37380;DHT22;23252;-33.992;18.480;2023-04-03T09:06:48;21.70;99.90
37380;DHT22;23252;-33.992;18.480;2023-04-03T09:09:35;21.80;99.90
37380;DHT22;23252;-33.992;18.480;2023-04-03T09:14:57;22.00;99.90
37380;DHT22;23252;-33.992;18.480;2023-04-03T09:21:49;22.20;99.90
37380;DHT22;23252;-33.992;18.480;2023-04-03T09:23:52;22.30;99.90
37380;DHT22;23252;-33.992;18.480;2023-04-03T09:26:25;22.40;99.90
37380;DHT22;23252;-33.992;18.480;2023-04-03T09:29:00;22.20;99.90
37380;DHT22;23252;-33.992;18.480;2023-04-03T09:31:38;22.00;99.90
37380;DHT22;23252;-33.992;18.480;2023-04-03T09:34:27;21.80;99.90
37380;DHT22;23252;-33.992;18.480;2023-04-03T09:37:00;21.80;99.90
37380;DHT22;23252;-33.992;18.480;2023-04-03T09:39:53;21.90;99.90
37380;DHT22;23252;-33.992;18.480;2023-04-03T09:42:25;22.00;99.90
37380;DHT22;23252;-33.992;18.480;2023-04-03T09:45:01;22.20;99.90
37380;DHT22;23252;-33.992;18.480;2023-04-03T09:47:32;22.30;99.90
37380;DHT22;23252;-33.992;18.480;2023-04-03T09:50:19;22.20;99.90
37380;DHT22;23252;-33.992;18.480;2023-04-03T09:52:48;22.00;99.90
37380;DHT22;23252;-33.992;18.480;2023-04-03T09:55:25;21.80;99.90
37380;DHT22;23252;-33.992;18.480;2023-04-03T09:58:02;21.60;99.90
37380;DHT22;23252;-33.992;18.480;2023-04-03T10:00:38;21.60;99.90
37380;DHT22;23252;-33.992;18.480;2023-04-03T10:03:25;21.60;99.90
37380;DHT22;23252;-33.992;18.480;2023-04-03T10:05:52;21.70;99.90
37380;DHT22;23252;-33.992;18.480;2023-04-03T10:08:34;21.70;99.90
37380;DHT22;23252;-33.992;18.480;2023-04-03T10:13:50;21.70;99.90
37380;DHT22;23252;-33.992;18.480;2023-04-03T10:16:20;21.80;99.90
37380;DHT22;23252;-33.992;18.480;2023-04-03T10:21:50;22.20;99.90
37380;DHT22;23252;-33.992;18.480;2023-04-03T10:24:36;22.40;99.90
37380;DHT22;23252;-33.992;18.480;2023-04-03T10:27:30;22.60;99.90
37380;DHT22;23252;-33.992;18.480;2023-04-03T10:33:39;22.60;99.90
37380;DHT22;23252;-33.992;18.480;2023-04-03T10:35:53;22.20;99.90
37380;DHT22;23252;-33.992;18.480;2023-04-03T10:38:58;22.00;99.90
37380;DHT22;23252;-33.992;18.480;2023-04-03T10:47:18;21.60;99.90
37380;DHT22;23252;-33.992;18.480;2023-04-03T10:52:52;21.50;99.90
37380;DHT22;23252;-33.992;18.480;2023-04-03T10:57:59;21.80;99.90
37380;DHT22;23252;-33.992;18.480;2023-04-03T11:00:47;21.80;99.90
37380;DHT22;23252;-33.992;18.480;2023-04-03T11:03:32;21.70;99.90
37380;DHT22;23252;-33.992;18.480;2023-04-03T11:06:03;21.70;99.90
37380;DHT22;23252;-33.992;18.480;2023-04-03T11:08:53;21.70;99.90
37380;DHT22;23252;-33.992;18.480;2023-04-03T11:11:30;21.70;99.90
37380;DHT22;23252;-33.992;18.480;2023-04-03T11:17:23;22.00;99.90
37380;DHT22;23252;-33.992;18.480;2023-04-03T11:23:05;22.70;99.90
37380;DHT22;23252;-33.992;18.480;2023-04-03T11:25:34;22.50;99.90
37380;DHT22;23252;-33.992;18.480;2023-04-03T11:28:11;22.20;99.90
37380;DHT22;23252;-33.992;18.480;2023-04-03T11:35:46;22.30;99.90
37380;DHT22;23252;-33.992;18.480;2023-04-03T11:38:23;22.60;99.90
37380;DHT22;23252;-33.992;18.480;2023-04-03T11:40:54;22.70;99.90
37380;DHT22;23252;-33.992;18.480;2023-04-03T11:43:27;22.90;99.90
37380;DHT22;23252;-33.992;18.480;2023-04-03T11:46:05;23.00;99.90
37380;DHT22;23252;-33.992;18.480;2023-04-03T11:53:44;23.00;99.90
37380;DHT22;23252;-33.992;18.480;2023-04-03T12:01:45;23.30;99.90
37380;DHT22;23252;-33.992;18.480;2023-04-03T12:04:13;23.50;99.90
37380;DHT22;23252;-33.992;18.480;2023-04-03T12:06:43;23.50;99.90
37380;DHT22;23252;-33.992;18.480;2023-04-03T12:09:28;23.30;99.90
37380;DHT22;23252;-33.992;18.480;2023-04-03T12:11:56;23.30;99.90
37380;DHT22;23252;-33.992;18.480;2023-04-03T12:14:25;23.30;99.90
37380;DHT22;23252;-33.992;18.480;2023-04-03T12:16:53;23.40;99.90
37380;DHT22;23252;-33.992;18.480;2023-04-03T12:19:39;23.20;99.90
37380;DHT22;23252;-33.992;18.480;2023-04-03T12:22:13;22.90;99.90
37380;DHT22;23252;-33.992;18.480;2023-04-03T12:24:42;23.20;99.90
37380;DHT22;23252;-33.992;18.480;2023-04-03T12:35:24;24.40;99.90
37380;DHT22;23252;-33.992;18.480;2023-04-03T12:41:18;26.30;99.90
37380;DHT22;23252;-33.992;18.480;2023-04-03T12:46:23;27.20;99.90
37380;DHT22;23252;-33.992;18.480;2023-04-03T12:48:54;27.10;99.90
37380;DHT22;23252;-33.992;18.480;2023-04-03T12:51:22;27.20;99.90
37380;DHT22;23252;-33.992;18.480;2023-04-03T12:53:54;27.40;99.90
37380;DHT22;23252;-33.992;18.480;2023-04-03T12:56:29;27.70;99.90
37380;DHT22;23252;-33.992;18.480;2023-04-03T12:59:14;28.00;99.90
37380;DHT22;23252;-33.992;18.480;2023-04-03T13:01:42;28.10;99.90
37380;DHT22;23252;-33.992;18.480;2023-04-03T13:04:11;27.60;99.90
37380;DHT22;23252;-33.992;18.480;2023-04-03T13:06:43;27.30;99.90
37380;DHT22;23252;-33.992;18.480;2023-04-03T13:09:28;27.10;99.90
37380;DHT22;23252;-33.992;18.480;2023-04-03T13:12:03;27.10;99.90
37380;DHT22;23252;-33.992;18.480;2023-04-03T13:14:35;27.30;99.90
37380;DHT22;23252;-33.992;18.480;2023-04-03T13:17:15;27.50;99.90
37380;DHT22;23252;-33.992;18.480;2023-04-03T13:19:44;27.00;99.90
37380;DHT22;23252;-33.992;18.480;2023-04-03T13:22:37;27.20;99.90
37380;DHT22;23252;-33.992;18.480;2023-04-03T13:25:13;26.00;99.90
37380;DHT22;23252;-33.992;18.480;2023-04-03T13:27:41;25.30;99.90
37380;DHT22;23252;-33.992;18.480;2023-04-03T13:30:29;25.30;99.90
37380;DHT22;23252;-33.992;18.480;2023-04-03T13:32:58;24.80;99.90
37380;DHT22;23252;-33.992;18.480;2023-04-03T13:35:37;24.30;99.90
37380;DHT22;23252;-33.992;18.480;2023-04-03T13:40:35;24.40;99.90
37380;DHT22;23252;-33.992;18.480;2023-04-03T13:43:25;24.20;99.90
37380;DHT22;23252;-33.992;18.480;2023-04-03T13:48:39;25.20;99.90
37380;DHT22;23252;-33.992;18.480;2023-04-03T13:51:18;25.50;99.90
37380;DHT22;23252;-33.992;18.480;2023-04-03T13:53:58;25.30;99.90
37380;DHT22;23252;-33.992;18.480;2023-04-03T13:56:32;24.70;99.90
37380;DHT22;23252;-33.992;18.480;2023-04-03T13:59:00;24.30;99.90
37380;DHT22;23252;-33.992;18.480;2023-04-03T14:01:39;24.20;99.90
37380;DHT22;23252;-33.992;18.480;2023-04-03T14:04:19;24.20;99.90
37380;DHT22;23252;-33.992;18.480;2023-04-03T14:06:48;24.10;99.90
37380;DHT22;23252;-33.992;18.480;2023-04-03T14:09:16;23.80;99.90
37380;DHT22;23252;-33.992;18.480;2023-04-03T14:11:43;23.40;99.90
37380;DHT22;23252;-33.992;18.480;2023-04-03T14:14:20;23.00;99.90
37380;DHT22;23252;-33.992;18.480;2023-04-03T14:16:48;22.90;99.90
37380;DHT22;23252;-33.992;18.480;2023-04-03T14:19:19;22.80;99.90
37380;DHT22;23252;-33.992;18.480;2023-04-03T14:21:46;22.90;99.90
37380;DHT22;23252;-33.992;18.480;2023-04-03T14:24:12;22.90;99.90
37380;DHT22;23252;-33.992;18.480;2023-04-03T14:26:39;22.80;99.90
37380;DHT22;23252;-33.992;18.480;2023-04-03T14:29:09;22.60;99.90
37380;DHT22;23252;-33.992;18.480;2023-04-03T14:31:36;22.50;99.90
37380;DHT22;23252;-33.992;18.480;2023-04-03T14:34:03;22.40;99.90
37380;DHT22;23252;-33.992;18.480;2023-04-03T14:36:30;22.40;99.90
37380;DHT22;23252;-33.992;18.480;2023-04-03T14:38:59;22.30;99.90
37380;DHT22;23252;-33.992;18.480;2023-04-03T14:41:27;22.40;99.90
37380;DHT22;23252;-33.992;18.480;2023-04-03T14:43:54;22.40;99.90
37380;DHT22;23252;-33.992;18.480;2023-04-03T14:46:25;22.40;99.90
37380;DHT22;23252;-33.992;18.480;2023-04-03T14:48:52;22.40;99.90
37380;DHT22;23252;-33.992;18.480;2023-04-03T14:51:45;22.40;99.90
37380;DHT22;23252;-33.992;18.480;2023-04-03T14:54:18;22.40;99.90
37380;DHT22;23252;-33.992;18.480;2023-04-03T14:56:45;22.40;99.90
37380;DHT22;23252;-33.992;18.480;2023-04-03T14:59:13;22.50;99.90
37380;DHT22;23252;-33.992;18.480;2023-04-03T15:01:41;22.40;99.90
37380;DHT22;23252;-33.992;18.480;2023-04-03T15:04:19;22.40;99.90
37380;DHT22;23252;-33.992;18.480;2023-04-03T15:06:47;22.30;99.90
37380;DHT22;23252;-33.992;18.480;2023-04-03T15:09:25;22.30;99.90
37380;DHT22;23252;-33.992;18.480;2023-04-03T15:11:54;22.30;99.90
37380;DHT22;23252;-33.992;18.480;2023-04-03T15:14:21;22.40;99.90
37380;DHT22;23252;-33.992;18.480;2023-04-03T15:16:48;22.40;99.90
37380;DHT22;23252;-33.992;18.480;2023-04-03T15:19:15;22.40;99.90
37380;DHT22;23252;-33.992;18.480;2023-04-03T15:21:41;22.10;99.90
37380;DHT22;23252;-33.992;18.480;2023-04-03T15:24:09;21.90;99.90
37380;DHT22;23252;-33.992;18.480;2023-04-03T15:26:36;21.80;99.90
37380;DHT22;23252;-33.992;18.480;2023-04-03T15:29:04;21.60;99.90
37380;DHT22;23252;-33.992;18.480;2023-04-03T15:31:31;21.60;99.90
37380;DHT22;23252;-33.992;18.480;2023-04-03T15:34:07;21.60;99.90
37380;DHT22;23252;-33.992;18.480;2023-04-03T15:36:34;21.50;99.90
37380;DHT22;23252;-33.992;18.480;2023-04-03T15:39:01;21.50;99.90
37380;DHT22;23252;-33.992;18.480;2023-04-03T15:41:27;21.50;99.90
37380;DHT22;23252;-33.992;18.480;2023-04-03T15:43:54;21.50;99.90
37380;DHT22;23252;-33.992;18.480;2023-04-03T15:46:20;21.40;99.90
37380;DHT22;23252;-33.992;18.480;2023-04-03T15:48:47;21.40;99.90
37380;DHT22;23252;-33.992;18.480;2023-04-03T15:51:15;21.40;99.90
37380;DHT22;23252;-33.992;18.480;2023-04-03T15:53:42;21.30;99.90
37380;DHT22;23252;-33.992;18.480;2023-04-03T15:56:11;21.40;99.90
37380;DHT22;23252;-33.992;18.480;2023-04-03T15:58:38;21.30;99.90
37380;DHT22;23252;-33.992;18.480;2023-04-03T16:01:05;21.30;99.90
37380;DHT22;23252;-33.992;18.480;2023-04-03T16:03:32;21.20;99.90
37380;DHT22;23252;-33.992;18.480;2023-04-03T16:05:59;21.20;99.90
37380;DHT22;23252;-33.992;18.480;2023-04-03T16:08:27;21.20;99.90
37380;DHT22;23252;-33.992;18.480;2023-04-03T16:10:53;21.10;99.90
37380;DHT22;23252;-33.992;18.480;2023-04-03T16:13:20;21.00;99.90
37380;DHT22;23252;-33.992;18.480;2023-04-03T16:15:46;21.00;99.90
37380;DHT22;23252;-33.992;18.480;2023-04-03T16:18:14;20.90;99.90
37380;DHT22;23252;-33.992;18.480;2023-04-03T16:20:41;20.80;99.90
37380;DHT22;23252;-33.992;18.480;2023-04-03T16:23:09;20.70;99.90
37380;DHT22;23252;-33.992;18.480;2023-04-03T16:25:36;20.70;99.90
37380;DHT22;23252;-33.992;18.480;2023-04-03T16:28:03;20.70;99.90
37380;DHT22;23252;-33.992;18.480;2023-04-03T16:30:30;20.70;99.90
37380;DHT22;23252;-33.992;18.480;2023-04-03T16:32:57;20.70;99.90
37380;DHT22;23252;-33.992;18.480;2023-04-03T16:35:23;20.70;99.90
37380;DHT22;23252;-33.992;18.480;2023-04-03T16:37:50;20.70;99.90
37380;DHT22;23252;-33.992;18.480;2023-04-03T16:40:16;20.80;99.90
37380;DHT22;23252;-33.992;18.480;2023-04-03T16:42:43;20.80;99.90
37380;DHT22;23252;-33.992;18.480;2023-04-03T16:45:10;20.90;99.90
37380;DHT22;23252;-33.992;18.480;2023-04-03T16:47:36;20.90;99.90
37380;DHT22;23252;-33.992;18.480;2023-04-03T16:50:06;20.80;99.90
37380;DHT22;23252;-33.992;18.480;2023-04-03T16:52:33;20.80;99.90
37380;DHT22;23252;-33.992;18.480;2023-04-03T16:55:00;20.80;99.90
37380;DHT22;23252;-33.992;18.480;2023-04-03T16:57:26;20.70;99.90
37380;DHT22;23252;-33.992;18.480;2023-04-03T16:59:53;20.70;99.90
37380;DHT22;23252;-33.992;18.480;2023-04-03T17:02:21;20.70;99.90
37380;DHT22;23252;-33.992;18.480;2023-04-03T17:04:51;20.60;99.90
37380;DHT22;23252;-33.992;18.480;2023-04-03T17:07:19;20.50;99.90
37380;DHT22;23252;-33.992;18.480;2023-04-03T17:09:47;20.50;99.90
37380;DHT22;23252;-33.992;18.480;2023-04-03T17:12:14;20.50;99.90
37380;DHT22;23252;-33.992;18.480;2023-04-03T17:14:40;20.40;99.90
37380;DHT22;23252;-33.992;18.480;2023-04-03T17:17:07;20.30;99.90
37380;DHT22;23252;-33.992;18.480;2023-04-03T17:19:35;20.30;99.90
37380;DHT22;23252;-33.992;18.480;2023-04-03T17:22:02;20.20;99.90
37380;DHT22;23252;-33.992;18.480;2023-04-03T17:24:34;20.20;99.90
37380;DHT22;23252;-33.992;18.480;2023-04-03T17:27:02;20.20;99.90
37380;DHT22;23252;-33.992;18.480;2023-04-03T17:29:28;20.10;99.90
37380;DHT22;23252;-33.992;18.480;2023-04-03T17:31:55;20.10;99.90
37380;DHT22;23252;-33.992;18.480;2023-04-03T17:34:22;20.00;99.90
37380;DHT22;23252;-33.992;18.480;2023-04-03T17:36:54;20.00;99.90
37380;DHT22;23252;-33.992;18.480;2023-04-03T17:39:21;19.90;99.90
37380;DHT22;23252;-33.992;18.480;2023-04-03T17:41:47;19.80;99.90
37380;DHT22;23252;-33.992;18.480;2023-04-03T17:44:14;19.80;99.90
37380;DHT22;23252;-33.992;18.480;2023-04-03T17:46:43;19.80;99.90
37380;DHT22;23252;-33.992;18.480;2023-04-03T17:49:10;19.80;99.90
37380;DHT22;23252;-33.992;18.480;2023-04-03T17:51:40;19.80;99.90
37380;DHT22;23252;-33.992;18.480;2023-04-03T17:54:08;19.90;99.90
37380;DHT22;23252;-33.992;18.480;2023-04-03T17:56:34;19.90;99.90
37380;DHT22;23252;-33.992;18.480;2023-04-03T17:59:01;19.80;99.90
37380;DHT22;23252;-33.992;18.480;2023-04-03T18:01:34;19.80;99.90
37380;DHT22;23252;-33.992;18.480;2023-04-03T18:04:03;19.80;99.90
37380;DHT22;23252;-33.992;18.480;2023-04-03T18:06:41;19.70;99.90
37380;DHT22;23252;-33.992;18.480;2023-04-03T18:09:14;19.70;99.90
37380;DHT22;23252;-33.992;18.480;2023-04-03T18:11:42;19.70;99.90
37380;DHT22;23252;-33.992;18.480;2023-04-03T20:13:47;18.10;99.90
37380;DHT22;23252;-33.992;18.480;2023-04-03T20:16:13;18.20;99.90
37380;DHT22;23252;-33.992;18.480;2023-04-03T20:18:40;18.10;99.90
37380;DHT22;23252;-33.992;18.480;2023-04-03T20:21:07;18.20;99.90
37380;DHT22;23252;-33.992;18.480;2023-04-03T20:23:34;18.10;99.90
37380;DHT22;23252;-33.992;18.480;2023-04-03T20:26:04;18.10;99.90
37380;DHT22;23252;-33.992;18.480;2023-04-03T20:28:31;18.10;99.90
37380;DHT22;23252;-33.992;18.480;2023-04-03T20:30:58;18.10;99.90